sensor_id;sensor_type;location;lat;lon;timestamp;P1;durP1;ratioP1;P2;durP2;ratioP2
58756;SDS011;44527;47.460;19.016;2023-03-01T00:01:51;14.43;;;6.55;;
58756;SDS011;44527;47.460;19.016;2023-03-01T00:04:54;13.32;;;6.40;;
58756;SDS011;44527;47.460;19.016;2023-03-01T00:07:57;16.58;;;7.57;;
58756;SDS011;44527;47.460;19.016;2023-03-01T00:11:01;16.52;;;6.90;;
58756;SDS011;44527;47.460;19.016;2023-03-01T00:14:08;15.93;;;7.00;;
58756;SDS011;44527;47.460;19.016;2023-03-01T00:17:11;17.85;;;7.43;;
58756;SDS011;44527;47.460;19.016;2023-03-01T00:20:13;17.40;;;7.93;;
58756;SDS011;44527;47.460;19.016;2023-03-01T00:23:16;19.95;;;9.93;;
58756;SDS011;44527;47.460;19.016;2023-03-01T00:26:19;21.12;;;9.35;;
58756;SDS011;44527;47.460;19.016;2023-03-01T00:29:25;20.02;;;9.38;;
58756;SDS011;44527;47.460;19.016;2023-03-01T00:32:29;22.60;;;9.77;;
58756;SDS011;44527;47.460;19.016;2023-03-01T00:35:32;21.85;;;9.57;;
58756;SDS011;44527;47.460;19.016;2023-03-01T00:38:36;24.15;;;10.55;;
58756;SDS011;44527;47.460;19.016;2023-03-01T00:41:41;17.50;;;9.77;;
58756;SDS011;44527;47.460;19.016;2023-03-01T00:44:44;20.30;;;8.88;;
58756;SDS011;44527;47.460;19.016;2023-03-01T00:47:48;21.15;;;9.15;;
58756;SDS011;44527;47.460;19.016;2023-03-01T00:50:51;20.05;;;9.10;;
58756;SDS011;44527;47.460;19.016;2023-03-01T00:53:54;18.15;;;7.15;;
58756;SDS011;44527;47.460;19.016;2023-03-01T00:56:59;17.27;;;7.35;;
58756;SDS011;44527;47.460;19.016;2023-03-01T01:00:02;15.45;;;7.68;;
58756;SDS011;44527;47.460;19.016;2023-03-01T01:03:06;17.90;;;8.20;;
58756;SDS011;44527;47.460;19.016;2023-03-01T01:06:13;17.42;;;7.57;;
58756;SDS011;44527;47.460;19.016;2023-03-01T01:09:36;15.93;;;8.40;;
58756;SDS011;44527;47.460;19.016;2023-03-01T01:12:39;17.50;;;7.18;;
58756;SDS011;44527;47.460;19.016;2023-03-01T01:15:41;16.50;;;7.85;;
58756;SDS011;44527;47.460;19.016;2023-03-01T01:18:44;16.42;;;8.10;;
58756;SDS011;44527;47.460;19.016;2023-03-01T01:21:47;18.70;;;8.40;;
58756;SDS011;44527;47.460;19.016;2023-03-01T01:24:50;17.70;;;8.43;;
58756;SDS011;44527;47.460;19.016;2023-03-01T01:27:52;15.88;;;8.32;;
58756;SDS011;44527;47.460;19.016;2023-03-01T01:30:55;18.87;;;8.55;;
58756;SDS011;44527;47.460;19.016;2023-03-01T01:33:58;17.08;;;9.02;;
58756;SDS011;44527;47.460;19.016;2023-03-01T01:37:02;20.05;;;9.75;;
58756;SDS011;44527;47.460;19.016;2023-03-01T01:40:05;20.12;;;10.30;;
58756;SDS011;44527;47.460;19.016;2023-03-01T01:43:30;17.45;;;9.18;;
58756;SDS011;44527;47.460;19.016;2023-03-01T01:46:39;23.98;;;9.65;;
58756;SDS011;44527;47.460;19.016;2023-03-01T01:49:46;16.73;;;8.20;;
58756;SDS011;44527;47.460;19.016;2023-03-01T01:52:53;16.02;;;9.43;;
58756;SDS011;44527;47.460;19.016;2023-03-01T01:55:58;17.37;;;8.95;;
58756;SDS011;44527;47.460;19.016;2023-03-01T01:59:03;19.10;;;9.05;;
58756;SDS011;44527;47.460;19.016;2023-03-01T02:02:06;19.25;;;8.90;;
58756;SDS011;44527;47.460;19.016;2023-03-01T02:05:10;23.12;;;8.60;;
58756;SDS011;44527;47.460;19.016;2023-03-01T02:08:20;24.77;;;8.90;;
58756;SDS011;44527;47.460;19.016;2023-03-01T02:11:25;17.25;;;8.00;;
58756;SDS011;44527;47.460;19.016;2023-03-01T02:14:29;15.25;;;8.07;;
58756;SDS011;44527;47.460;19.016;2023-03-01T02:17:32;16.17;;;8.13;;
58756;SDS011;44527;47.460;19.016;2023-03-01T02:23:45;18.92;;;7.78;;
58756;SDS011;44527;47.460;19.016;2023-03-01T02:26:54;17.08;;;8.02;;
58756;SDS011;44527;47.460;19.016;2023-03-01T02:29:58;13.82;;;7.05;;
58756;SDS011;44527;47.460;19.016;2023-03-01T02:33:00;15.25;;;7.25;;
58756;SDS011;44527;47.460;19.016;2023-03-01T02:36:08;13.07;;;6.45;;
58756;SDS011;44527;47.460;19.016;2023-03-01T02:42:21;14.75;;;6.45;;
58756;SDS011;44527;47.460;19.016;2023-03-01T02:45:28;16.55;;;7.55;;
58756;SDS011;44527;47.460;19.016;2023-03-01T02:48:39;18.83;;;7.28;;
58756;SDS011;44527;47.460;19.016;2023-03-01T02:51:48;21.60;;;7.18;;
58756;SDS011;44527;47.460;19.016;2023-03-01T02:58:19;12.88;;;6.65;;
58756;SDS011;44527;47.460;19.016;2023-03-01T03:01:23;14.23;;;7.62;;
58756;SDS011;44527;47.460;19.016;2023-03-01T03:04:38;15.85;;;7.22;;
58756;SDS011;44527;47.460;19.016;2023-03-01T03:07:42;16.00;;;7.57;;
58756;SDS011;44527;47.460;19.016;2023-03-01T03:10:46;13.65;;;7.10;;
58756;SDS011;44527;47.460;19.016;2023-03-01T03:13:49;13.68;;;7.07;;
58756;SDS011;44527;47.460;19.016;2023-03-01T03:16:52;15.05;;;7.25;;
58756;SDS011;44527;47.460;19.016;2023-03-01T03:19:55;13.07;;;7.78;;
58756;SDS011;44527;47.460;19.016;2023-03-01T03:22:58;14.02;;;7.03;;
58756;SDS011;44527;47.460;19.016;2023-03-01T03:26:01;16.00;;;7.40;;
58756;SDS011;44527;47.460;19.016;2023-03-01T03:29:06;21.80;;;8.95;;
58756;SDS011;44527;47.460;19.016;2023-03-01T03:32:09;15.05;;;6.07;;
58756;SDS011;44527;47.460;19.016;2023-03-01T03:35:11;14.23;;;7.07;;
58756;SDS011;44527;47.460;19.016;2023-03-01T03:38:15;20.52;;;6.70;;
58756;SDS011;44527;47.460;19.016;2023-03-01T03:41:21;14.20;;;6.72;;
58756;SDS011;44527;47.460;19.016;2023-03-01T03:44:24;15.95;;;7.32;;
58756;SDS011;44527;47.460;19.016;2023-03-01T03:47:27;13.62;;;6.93;;
58756;SDS011;44527;47.460;19.016;2023-03-01T03:50:29;13.35;;;7.00;;
58756;SDS011;44527;47.460;19.016;2023-03-01T03:53:32;17.92;;;6.72;;
58756;SDS011;44527;47.460;19.016;2023-03-01T03:56:35;18.00;;;7.03;;
58756;SDS011;44527;47.460;19.016;2023-03-01T03:59:39;15.05;;;7.07;;
58756;SDS011;44527;47.460;19.016;2023-03-01T04:02:42;15.50;;;6.93;;
58756;SDS011;44527;47.460;19.016;2023-03-01T04:05:46;15.60;;;7.25;;
58756;SDS011;44527;47.460;19.016;2023-03-01T04:08:50;16.02;;;7.22;;
58756;SDS011;44527;47.460;19.016;2023-03-01T04:11:53;16.20;;;7.53;;
58756;SDS011;44527;47.460;19.016;2023-03-01T04:14:55;18.40;;;8.57;;
58756;SDS011;44527;47.460;19.016;2023-03-01T04:17:58;16.33;;;7.75;;
58756;SDS011;44527;47.460;19.016;2023-03-01T04:21:01;27.42;;;8.52;;
58756;SDS011;44527;47.460;19.016;2023-03-01T04:24:04;23.52;;;7.78;;
58756;SDS011;44527;47.460;19.016;2023-03-01T04:27:07;19.17;;;8.18;;
58756;SDS011;44527;47.460;19.016;2023-03-01T04:30:10;16.85;;;7.80;;
58756;SDS011;44527;47.460;19.016;2023-03-01T04:33:13;18.95;;;8.50;;
58756;SDS011;44527;47.460;19.016;2023-03-01T04:36:16;16.08;;;8.00;;
58756;SDS011;44527;47.460;19.016;2023-03-01T04:39:20;14.20;;;7.32;;
58756;SDS011;44527;47.460;19.016;2023-03-01T04:42:23;16.80;;;7.80;;
58756;SDS011;44527;47.460;19.016;2023-03-01T04:45:25;17.92;;;7.25;;
58756;SDS011;44527;47.460;19.016;2023-03-01T04:48:29;15.05;;;7.28;;
58756;SDS011;44527;47.460;19.016;2023-03-01T04:51:32;16.35;;;7.78;;
58756;SDS011;44527;47.460;19.016;2023-03-01T04:54:35;13.85;;;6.57;;
58756;SDS011;44527;47.460;19.016;2023-03-01T04:57:37;16.87;;;6.93;;
58756;SDS011;44527;47.460;19.016;2023-03-01T05:00:40;15.77;;;7.25;;
58756;SDS011;44527;47.460;19.016;2023-03-01T05:03:43;13.73;;;6.72;;
58756;SDS011;44527;47.460;19.016;2023-03-01T05:06:48;16.58;;;7.68;;
58756;SDS011;44527;47.460;19.016;2023-03-01T05:09:51;17.30;;;7.45;;
58756;SDS011;44527;47.460;19.016;2023-03-01T05:12:56;14.40;;;6.37;;
58756;SDS011;44527;47.460;19.016;2023-03-01T05:16:01;14.77;;;6.82;;
58756;SDS011;44527;47.460;19.016;2023-03-01T05:19:05;11.73;;;6.65;;
58756;SDS011;44527;47.460;19.016;2023-03-01T05:22:13;17.52;;;7.00;;
58756;SDS011;44527;47.460;19.016;2023-03-01T05:25:15;17.75;;;8.20;;
58756;SDS011;44527;47.460;19.016;2023-03-01T05:28:19;16.17;;;7.87;;
58756;SDS011;44527;47.460;19.016;2023-03-01T05:31:22;16.62;;;7.00;;
58756;SDS011;44527;47.460;19.016;2023-03-01T05:34:25;13.80;;;7.05;;
58756;SDS011;44527;47.460;19.016;2023-03-01T05:37:29;15.95;;;6.72;;
58756;SDS011;44527;47.460;19.016;2023-03-01T05:40:32;11.73;;;6.18;;
58756;SDS011;44527;47.460;19.016;2023-03-01T05:43:35;17.42;;;7.30;;
58756;SDS011;44527;47.460;19.016;2023-03-01T05:46:37;19.37;;;7.65;;
58756;SDS011;44527;47.460;19.016;2023-03-01T05:49:40;16.70;;;7.53;;
58756;SDS011;44527;47.460;19.016;2023-03-01T05:52:42;15.20;;;6.40;;
58756;SDS011;44527;47.460;19.016;2023-03-01T05:55:45;14.43;;;6.93;;
58756;SDS011;44527;47.460;19.016;2023-03-01T05:58:49;13.10;;;6.07;;
58756;SDS011;44527;47.460;19.016;2023-03-01T06:01:52;11.20;;;6.47;;
58756;SDS011;44527;47.460;19.016;2023-03-01T06:04:55;13.80;;;6.68;;
58756;SDS011;44527;47.460;19.016;2023-03-01T06:07:58;21.42;;;6.15;;
58756;SDS011;44527;47.460;19.016;2023-03-01T06:11:01;18.92;;;7.40;;
58756;SDS011;44527;47.460;19.016;2023-03-01T06:14:04;22.10;;;7.30;;
58756;SDS011;44527;47.460;19.016;2023-03-01T06:17:09;13.38;;;6.70;;
58756;SDS011;44527;47.460;19.016;2023-03-01T06:20:15;19.60;;;7.85;;
58756;SDS011;44527;47.460;19.016;2023-03-01T06:23:20;19.08;;;8.32;;
58756;SDS011;44527;47.460;19.016;2023-03-01T06:26:24;18.17;;;7.18;;
58756;SDS011;44527;47.460;19.016;2023-03-01T06:29:26;16.80;;;7.35;;
58756;SDS011;44527;47.460;19.016;2023-03-01T06:32:29;19.27;;;8.00;;
58756;SDS011;44527;47.460;19.016;2023-03-01T06:35:33;23.62;;;9.13;;
58756;SDS011;44527;47.460;19.016;2023-03-01T06:38:35;19.42;;;8.23;;
58756;SDS011;44527;47.460;19.016;2023-03-01T06:41:38;15.32;;;7.55;;
58756;SDS011;44527;47.460;19.016;2023-03-01T06:44:40;23.83;;;9.13;;
58756;SDS011;44527;47.460;19.016;2023-03-01T06:47:42;19.55;;;7.80;;
58756;SDS011;44527;47.460;19.016;2023-03-01T06:50:45;18.95;;;8.52;;
58756;SDS011;44527;47.460;19.016;2023-03-01T06:53:47;17.20;;;8.38;;
58756;SDS011;44527;47.460;19.016;2023-03-01T06:56:50;17.92;;;8.48;;
58756;SDS011;44527;47.460;19.016;2023-03-01T06:59:52;22.30;;;8.05;;
58756;SDS011;44527;47.460;19.016;2023-03-01T07:02:57;17.55;;;9.05;;
58756;SDS011;44527;47.460;19.016;2023-03-01T07:06:01;45.53;;;8.95;;
58756;SDS011;44527;47.460;19.016;2023-03-01T07:09:03;16.92;;;8.23;;
58756;SDS011;44527;47.460;19.016;2023-03-01T07:12:07;16.17;;;7.62;;
58756;SDS011;44527;47.460;19.016;2023-03-01T07:15:10;16.83;;;8.55;;
58756;SDS011;44527;47.460;19.016;2023-03-01T07:18:13;21.85;;;8.65;;
58756;SDS011;44527;47.460;19.016;2023-03-01T07:21:15;19.75;;;7.50;;
58756;SDS011;44527;47.460;19.016;2023-03-01T07:24:20;19.02;;;8.00;;
58756;SDS011;44527;47.460;19.016;2023-03-01T07:27:27;19.27;;;7.62;;
58756;SDS011;44527;47.460;19.016;2023-03-01T07:30:30;15.40;;;8.43;;
58756;SDS011;44527;47.460;19.016;2023-03-01T07:33:33;18.98;;;9.10;;
58756;SDS011;44527;47.460;19.016;2023-03-01T07:36:35;17.77;;;8.02;;
58756;SDS011;44527;47.460;19.016;2023-03-01T07:39:38;18.62;;;8.70;;
58756;SDS011;44527;47.460;19.016;2023-03-01T07:42:41;15.55;;;7.53;;
58756;SDS011;44527;47.460;19.016;2023-03-01T07:45:44;18.55;;;8.23;;
58756;SDS011;44527;47.460;19.016;2023-03-01T07:48:47;15.90;;;8.05;;
58756;SDS011;44527;47.460;19.016;2023-03-01T07:51:49;17.52;;;8.68;;
58756;SDS011;44527;47.460;19.016;2023-03-01T07:54:52;23.87;;;9.50;;
58756;SDS011;44527;47.460;19.016;2023-03-01T07:57:55;16.45;;;8.27;;
58756;SDS011;44527;47.460;19.016;2023-03-01T08:01:00;15.75;;;8.18;;
58756;SDS011;44527;47.460;19.016;2023-03-01T08:04:05;20.37;;;8.40;;
58756;SDS011;44527;47.460;19.016;2023-03-01T08:07:09;15.25;;;8.35;;
58756;SDS011;44527;47.460;19.016;2023-03-01T08:10:11;19.75;;;9.15;;
58756;SDS011;44527;47.460;19.016;2023-03-01T08:13:14;21.30;;;8.52;;
58756;SDS011;44527;47.460;19.016;2023-03-01T08:16:17;16.08;;;7.95;;
58756;SDS011;44527;47.460;19.016;2023-03-01T08:19:20;15.93;;;7.95;;
58756;SDS011;44527;47.460;19.016;2023-03-01T08:22:23;20.27;;;9.35;;
58756;SDS011;44527;47.460;19.016;2023-03-01T08:25:26;15.55;;;9.13;;
58756;SDS011;44527;47.460;19.016;2023-03-01T08:28:44;15.77;;;7.85;;
58756;SDS011;44527;47.460;19.016;2023-03-01T08:31:47;19.02;;;9.60;;
58756;SDS011;44527;47.460;19.016;2023-03-01T08:34:50;17.17;;;8.75;;
58756;SDS011;44527;47.460;19.016;2023-03-01T08:37:52;21.15;;;9.27;;
58756;SDS011;44527;47.460;19.016;2023-03-01T08:40:56;16.90;;;8.82;;
58756;SDS011;44527;47.460;19.016;2023-03-01T08:44:02;20.83;;;9.27;;
58756;SDS011;44527;47.460;19.016;2023-03-01T08:47:06;27.52;;;9.02;;
58756;SDS011;44527;47.460;19.016;2023-03-01T08:50:11;17.62;;;9.30;;
58756;SDS011;44527;47.460;19.016;2023-03-01T08:53:14;15.50;;;8.32;;
58756;SDS011;44527;47.460;19.016;2023-03-01T08:56:19;17.62;;;8.15;;
58756;SDS011;44527;47.460;19.016;2023-03-01T08:59:22;12.98;;;8.00;;
58756;SDS011;44527;47.460;19.016;2023-03-01T09:02:25;18.70;;;8.60;;
58756;SDS011;44527;47.460;19.016;2023-03-01T09:05:27;18.65;;;8.45;;
58756;SDS011;44527;47.460;19.016;2023-03-01T09:08:39;16.92;;;8.90;;
58756;SDS011;44527;47.460;19.016;2023-03-01T09:11:44;18.10;;;8.77;;
58756;SDS011;44527;47.460;19.016;2023-03-01T09:14:48;18.00;;;8.70;;
58756;SDS011;44527;47.460;19.016;2023-03-01T09:17:53;24.83;;;8.82;;
58756;SDS011;44527;47.460;19.016;2023-03-01T09:21:04;14.75;;;8.77;;
58756;SDS011;44527;47.460;19.016;2023-03-01T09:24:14;21.35;;;9.30;;
58756;SDS011;44527;47.460;19.016;2023-03-01T09:27:17;18.73;;;8.40;;
58756;SDS011;44527;47.460;19.016;2023-03-01T09:30:21;17.60;;;9.13;;
58756;SDS011;44527;47.460;19.016;2023-03-01T09:33:27;20.92;;;8.80;;
58756;SDS011;44527;47.460;19.016;2023-03-01T09:36:31;21.92;;;9.38;;
58756;SDS011;44527;47.460;19.016;2023-03-01T09:39:39;17.25;;;9.70;;
58756;SDS011;44527;47.460;19.016;2023-03-01T09:42:46;16.30;;;9.15;;
58756;SDS011;44527;47.460;19.016;2023-03-01T09:46:03;16.55;;;8.82;;
58756;SDS011;44527;47.460;19.016;2023-03-01T09:49:46;17.87;;;9.60;;
58756;SDS011;44527;47.460;19.016;2023-03-01T09:53:04;19.15;;;9.32;;
58756;SDS011;44527;47.460;19.016;2023-03-01T09:56:19;23.87;;;9.27;;
58756;SDS011;44527;47.460;19.016;2023-03-01T10:06:13;18.70;;;9.10;;
58756;SDS011;44527;47.460;19.016;2023-03-01T10:09:37;22.30;;;10.18;;
58756;SDS011;44527;47.460;19.016;2023-03-01T10:12:41;16.40;;;8.10;;
58756;SDS011;44527;47.460;19.016;2023-03-01T10:15:56;18.20;;;8.95;;
58756;SDS011;44527;47.460;19.016;2023-03-01T10:19:05;19.73;;;9.07;;
58756;SDS011;44527;47.460;19.016;2023-03-01T10:22:19;27.10;;;9.70;;
58756;SDS011;44527;47.460;19.016;2023-03-01T10:29:08;22.00;;;10.23;;
58756;SDS011;44527;47.460;19.016;2023-03-01T10:32:12;16.17;;;9.38;;
58756;SDS011;44527;47.460;19.016;2023-03-01T10:35:16;17.50;;;9.10;;
58756;SDS011;44527;47.460;19.016;2023-03-01T10:38:19;15.55;;;8.18;;
58756;SDS011;44527;47.460;19.016;2023-03-01T10:41:24;25.75;;;9.95;;
58756;SDS011;44527;47.460;19.016;2023-03-01T10:47:37;23.90;;;9.77;;
58756;SDS011;44527;47.460;19.016;2023-03-01T10:50:41;16.42;;;9.50;;
58756;SDS011;44527;47.460;19.016;2023-03-01T10:53:49;15.98;;;9.10;;
58756;SDS011;44527;47.460;19.016;2023-03-01T10:56:54;17.35;;;8.07;;
58756;SDS011;44527;47.460;19.016;2023-03-01T11:00:36;17.33;;;9.60;;
58756;SDS011;44527;47.460;19.016;2023-03-01T11:03:32;18.77;;;9.43;;
58756;SDS011;44527;47.460;19.016;2023-03-01T11:06:37;17.48;;;8.80;;
58756;SDS011;44527;47.460;19.016;2023-03-01T12:49:57;16.95;;;6.75;;
58756;SDS011;44527;47.460;19.016;2023-03-01T12:53:04;11.48;;;6.70;;
58756;SDS011;44527;47.460;19.016;2023-03-01T12:56:08;13.88;;;7.32;;
58756;SDS011;44527;47.460;19.016;2023-03-01T12:59:35;20.62;;;7.75;;
58756;SDS011;44527;47.460;19.016;2023-03-01T13:03:51;17.70;;;7.65;;
58756;SDS011;44527;47.460;19.016;2023-03-01T13:09:50;20.30;;;8.27;;
58756;SDS011;44527;47.460;19.016;2023-03-01T13:16:20;10.10;;;5.80;;
58756;SDS011;44527;47.460;19.016;2023-03-01T13:19:23;11.30;;;5.62;;
58756;SDS011;44527;47.460;19.016;2023-03-01T13:22:29;11.40;;;5.22;;
58756;SDS011;44527;47.460;19.016;2023-03-01T13:29:00;7.87;;;4.72;;
58756;SDS011;44527;47.460;19.016;2023-03-01T13:32:03;13.35;;;5.70;;
58756;SDS011;44527;47.460;19.016;2023-03-01T13:38:36;12.27;;;6.20;;
58756;SDS011;44527;47.460;19.016;2023-03-01T13:42:00;12.40;;;6.57;;
58756;SDS011;44527;47.460;19.016;2023-03-01T13:45:05;14.18;;;6.82;;
58756;SDS011;44527;47.460;19.016;2023-03-01T13:48:22;17.00;;;6.50;;
58756;SDS011;44527;47.460;19.016;2023-03-01T13:51:28;15.43;;;6.78;;
58756;SDS011;44527;47.460;19.016;2023-03-01T13:54:32;14.70;;;6.10;;
58756;SDS011;44527;47.460;19.016;2023-03-01T13:57:36;14.48;;;5.32;;
58756;SDS011;44527;47.460;19.016;2023-03-01T14:00:45;9.35;;;5.47;;
58756;SDS011;44527;47.460;19.016;2023-03-01T14:03:49;13.43;;;5.87;;
58756;SDS011;44527;47.460;19.016;2023-03-01T14:06:52;10.82;;;5.85;;
58756;SDS011;44527;47.460;19.016;2023-03-01T14:10:11;11.82;;;4.37;;
58756;SDS011;44527;47.460;19.016;2023-03-01T14:16:46;11.38;;;4.22;;
58756;SDS011;44527;47.460;19.016;2023-03-01T14:20:09;8.00;;;4.15;;
58756;SDS011;44527;47.460;19.016;2023-03-01T14:23:13;10.82;;;4.80;;
58756;SDS011;44527;47.460;19.016;2023-03-01T14:26:22;8.82;;;4.72;;
58756;SDS011;44527;47.460;19.016;2023-03-01T14:29:35;7.75;;;4.25;;
58756;SDS011;44527;47.460;19.016;2023-03-01T14:32:39;11.63;;;3.85;;
58756;SDS011;44527;47.460;19.016;2023-03-01T14:35:41;10.73;;;4.53;;
58756;SDS011;44527;47.460;19.016;2023-03-01T14:38:45;8.10;;;4.18;;
58756;SDS011;44527;47.460;19.016;2023-03-01T14:41:50;11.98;;;4.68;;
58756;SDS011;44527;47.460;19.016;2023-03-01T14:44:53;9.48;;;4.55;;
58756;SDS011;44527;47.460;19.016;2023-03-01T14:48:02;9.38;;;4.68;;
58756;SDS011;44527;47.460;19.016;2023-03-01T14:51:07;7.53;;;4.00;;
58756;SDS011;44527;47.460;19.016;2023-03-01T14:57:43;16.30;;;4.47;;
58756;SDS011;44527;47.460;19.016;2023-03-01T15:00:50;7.97;;;3.78;;
58756;SDS011;44527;47.460;19.016;2023-03-01T15:03:53;13.10;;;5.12;;
58756;SDS011;44527;47.460;19.016;2023-03-01T15:06:56;6.62;;;3.78;;
58756;SDS011;44527;47.460;19.016;2023-03-01T15:10:07;5.95;;;3.70;;
58756;SDS011;44527;47.460;19.016;2023-03-01T15:13:22;8.23;;;3.72;;
58756;SDS011;44527;47.460;19.016;2023-03-01T15:16:26;17.90;;;3.97;;
58756;SDS011;44527;47.460;19.016;2023-03-01T15:19:33;7.60;;;3.50;;
58756;SDS011;44527;47.460;19.016;2023-03-01T15:22:35;10.10;;;4.05;;
58756;SDS011;44527;47.460;19.016;2023-03-01T15:25:43;9.02;;;4.00;;
58756;SDS011;44527;47.460;19.016;2023-03-01T15:28:49;13.77;;;3.87;;
58756;SDS011;44527;47.460;19.016;2023-03-01T15:32:04;14.23;;;3.30;;
58756;SDS011;44527;47.460;19.016;2023-03-01T15:41:57;11.05;;;4.05;;
58756;SDS011;44527;47.460;19.016;2023-03-01T15:48:23;11.32;;;4.12;;
58756;SDS011;44527;47.460;19.016;2023-03-01T15:51:29;12.65;;;4.05;;
58756;SDS011;44527;47.460;19.016;2023-03-01T15:54:39;9.48;;;3.95;;
58756;SDS011;44527;47.460;19.016;2023-03-01T15:57:43;12.02;;;3.70;;
58756;SDS011;44527;47.460;19.016;2023-03-01T16:00:46;7.93;;;3.90;;
58756;SDS011;44527;47.460;19.016;2023-03-01T16:04:02;7.53;;;4.28;;
58756;SDS011;44527;47.460;19.016;2023-03-01T16:07:05;17.40;;;4.68;;
58756;SDS011;44527;47.460;19.016;2023-03-01T16:10:08;13.00;;;4.60;;
58756;SDS011;44527;47.460;19.016;2023-03-01T16:13:11;19.02;;;4.70;;
58756;SDS011;44527;47.460;19.016;2023-03-01T16:16:15;7.12;;;3.65;;
58756;SDS011;44527;47.460;19.016;2023-03-01T16:19:19;7.53;;;4.15;;
58756;SDS011;44527;47.460;19.016;2023-03-01T16:22:22;13.98;;;4.53;;
58756;SDS011;44527;47.460;19.016;2023-03-01T16:25:27;12.75;;;4.05;;
58756;SDS011;44527;47.460;19.016;2023-03-01T16:28:30;13.77;;;4.65;;
58756;SDS011;44527;47.460;19.016;2023-03-01T16:31:33;13.27;;;4.57;;
58756;SDS011;44527;47.460;19.016;2023-03-01T16:34:36;16.05;;;5.07;;
58756;SDS011;44527;47.460;19.016;2023-03-01T16:37:38;10.73;;;3.85;;
58756;SDS011;44527;47.460;19.016;2023-03-01T16:40:43;21.20;;;4.00;;
58756;SDS011;44527;47.460;19.016;2023-03-01T16:43:50;9.88;;;4.18;;
58756;SDS011;44527;47.460;19.016;2023-03-01T16:46:53;14.65;;;4.57;;
58756;SDS011;44527;47.460;19.016;2023-03-01T16:49:56;8.70;;;4.57;;
58756;SDS011;44527;47.460;19.016;2023-03-01T16:52:59;13.57;;;3.78;;
58756;SDS011;44527;47.460;19.016;2023-03-01T16:56:03;10.60;;;4.10;;
58756;SDS011;44527;47.460;19.016;2023-03-01T16:59:07;10.68;;;4.15;;
58756;SDS011;44527;47.460;19.016;2023-03-01T17:02:10;20.58;;;4.75;;
58756;SDS011;44527;47.460;19.016;2023-03-01T17:05:17;14.13;;;3.83;;
58756;SDS011;44527;47.460;19.016;2023-03-01T17:08:20;14.15;;;4.28;;
58756;SDS011;44527;47.460;19.016;2023-03-01T17:11:23;16.33;;;4.72;;
58756;SDS011;44527;47.460;19.016;2023-03-01T17:14:25;10.48;;;4.45;;
58756;SDS011;44527;47.460;19.016;2023-03-01T17:17:29;12.02;;;4.25;;
58756;SDS011;44527;47.460;19.016;2023-03-01T17:20:31;16.27;;;4.45;;
58756;SDS011;44527;47.460;19.016;2023-03-01T17:23:35;9.30;;;4.72;;
58756;SDS011;44527;47.460;19.016;2023-03-01T17:26:39;11.48;;;4.30;;
58756;SDS011;44527;47.460;19.016;2023-03-01T17:29:42;19.87;;;5.62;;
58756;SDS011;44527;47.460;19.016;2023-03-01T17:32:45;16.92;;;5.20;;
58756;SDS011;44527;47.460;19.016;2023-03-01T17:35:49;10.38;;;5.07;;
58756;SDS011;44527;47.460;19.016;2023-03-01T17:38:52;12.02;;;5.03;;
58756;SDS011;44527;47.460;19.016;2023-03-01T17:41:55;15.70;;;5.53;;
58756;SDS011;44527;47.460;19.016;2023-03-01T17:44:58;21.33;;;5.50;;
58756;SDS011;44527;47.460;19.016;2023-03-01T17:48:02;16.73;;;5.95;;
58756;SDS011;44527;47.460;19.016;2023-03-01T17:51:11;11.23;;;5.22;;
58756;SDS011;44527;47.460;19.016;2023-03-01T17:54:14;19.02;;;6.22;;
58756;SDS011;44527;47.460;19.016;2023-03-01T17:57:16;24.40;;;6.45;;
58756;SDS011;44527;47.460;19.016;2023-03-01T18:00:19;26.83;;;7.65;;
58756;SDS011;44527;47.460;19.016;2023-03-01T18:03:23;14.98;;;6.75;;
58756;SDS011;44527;47.460;19.016;2023-03-01T18:06:26;24.05;;;6.72;;
58756;SDS011;44527;47.460;19.016;2023-03-01T18:09:30;21.80;;;6.10;;
58756;SDS011;44527;47.460;19.016;2023-03-01T18:12:32;19.95;;;6.07;;
58756;SDS011;44527;47.460;19.016;2023-03-01T18:15:35;17.05;;;6.15;;
58756;SDS011;44527;47.460;19.016;2023-03-01T18:18:39;17.23;;;6.90;;
58756;SDS011;44527;47.460;19.016;2023-03-01T18:21:43;14.98;;;6.97;;
58756;SDS011;44527;47.460;19.016;2023-03-01T18:24:45;23.80;;;7.60;;
58756;SDS011;44527;47.460;19.016;2023-03-01T18:27:49;20.25;;;7.53;;
58756;SDS011;44527;47.460;19.016;2023-03-01T18:30:59;24.58;;;6.57;;
58756;SDS011;44527;47.460;19.016;2023-03-01T18:34:04;19.62;;;6.68;;
58756;SDS011;44527;47.460;19.016;2023-03-01T18:37:07;20.37;;;7.93;;
58756;SDS011;44527;47.460;19.016;2023-03-01T18:40:12;26.58;;;9.02;;
58756;SDS011;44527;47.460;19.016;2023-03-01T18:43:15;19.67;;;8.65;;
58756;SDS011;44527;47.460;19.016;2023-03-01T18:46:18;20.23;;;8.82;;
58756;SDS011;44527;47.460;19.016;2023-03-01T18:49:21;20.37;;;9.43;;
58756;SDS011;44527;47.460;19.016;2023-03-01T18:52:25;25.05;;;8.80;;
58756;SDS011;44527;47.460;19.016;2023-03-01T18:55:27;26.70;;;8.77;;
58756;SDS011;44527;47.460;19.016;2023-03-01T18:58:31;22.87;;;9.32;;
58756;SDS011;44527;47.460;19.016;2023-03-01T19:01:34;21.52;;;9.65;;
58756;SDS011;44527;47.460;19.016;2023-03-01T19:04:39;22.83;;;9.88;;
58756;SDS011;44527;47.460;19.016;2023-03-01T19:07:42;21.85;;;9.45;;
58756;SDS011;44527;47.460;19.016;2023-03-01T19:10:45;32.53;;;10.63;;
58756;SDS011;44527;47.460;19.016;2023-03-01T19:13:48;31.85;;;11.10;;
58756;SDS011;44527;47.460;19.016;2023-03-01T19:16:53;26.60;;;11.93;;
58756;SDS011;44527;47.460;19.016;2023-03-01T19:19:56;25.77;;;11.40;;
58756;SDS011;44527;47.460;19.016;2023-03-01T19:22:59;30.02;;;12.77;;
58756;SDS011;44527;47.460;19.016;2023-03-01T19:26:03;38.42;;;12.48;;
58756;SDS011;44527;47.460;19.016;2023-03-01T19:29:09;32.15;;;11.93;;
58756;SDS011;44527;47.460;19.016;2023-03-01T19:32:13;35.03;;;13.43;;
58756;SDS011;44527;47.460;19.016;2023-03-01T19:35:17;30.35;;;14.23;;
58756;SDS011;44527;47.460;19.016;2023-03-01T19:38:20;34.88;;;15.27;;
58756;SDS011;44527;47.460;19.016;2023-03-01T19:41:24;37.15;;;15.65;;
58756;SDS011;44527;47.460;19.016;2023-03-01T19:44:27;47.58;;;17.52;;
58756;SDS011;44527;47.460;19.016;2023-03-01T19:47:31;43.95;;;16.02;;
58756;SDS011;44527;47.460;19.016;2023-03-01T19:50:33;41.95;;;14.25;;
58756;SDS011;44527;47.460;19.016;2023-03-01T19:53:38;32.92;;;14.27;;
58756;SDS011;44527;47.460;19.016;2023-03-01T19:56:41;36.40;;;15.68;;
58756;SDS011;44527;47.460;19.016;2023-03-01T19:59:44;35.33;;;15.48;;
58756;SDS011;44527;47.460;19.016;2023-03-01T20:02:46;33.60;;;14.35;;
58756;SDS011;44527;47.460;19.016;2023-03-01T20:05:50;32.28;;;14.25;;
58756;SDS011;44527;47.460;19.016;2023-03-01T20:08:52;42.97;;;16.40;;
58756;SDS011;44527;47.460;19.016;2023-03-01T20:11:56;42.42;;;16.20;;
58756;SDS011;44527;47.460;19.016;2023-03-01T20:14:58;42.47;;;17.02;;
58756;SDS011;44527;47.460;19.016;2023-03-01T20:18:01;46.67;;;18.25;;
58756;SDS011;44527;47.460;19.016;2023-03-01T20:21:04;49.05;;;19.55;;
58756;SDS011;44527;47.460;19.016;2023-03-01T20:24:23;48.58;;;18.60;;
58756;SDS011;44527;47.460;19.016;2023-03-01T20:27:26;47.45;;;19.30;;
58756;SDS011;44527;47.460;19.016;2023-03-01T20:30:29;56.83;;;19.55;;
58756;SDS011;44527;47.460;19.016;2023-03-01T20:33:32;52.28;;;18.42;;
58756;SDS011;44527;47.460;19.016;2023-03-01T20:36:35;44.95;;;18.25;;